createdAt,value
2023-04-02T00:13:22.082Z,6.16
2023-04-02T00:33:22.060Z,5.88
2023-04-02T00:53:22.033Z,5.76
2023-04-02T01:13:22.006Z,5.58
2023-04-02T01:33:21.979Z,5.33
2023-04-02T01:53:21.930Z,5.23
2023-04-02T02:13:21.911Z,5.14
2023-04-02T04:33:21.715Z,3.91
2023-04-02T05:13:21.653Z,3.78
2023-04-02T05:33:21.646Z,3.67
2023-04-02T05:53:21.644Z,3.56
2023-04-02T06:13:21.580Z,3.41
2023-04-02T06:33:21.543Z,3.46
2023-04-02T06:53:21.534Z,3.34
2023-04-02T07:13:21.511Z,3.37
2023-04-02T07:33:21.487Z,3.38
2023-04-02T07:53:21.470Z,3.53
2023-04-02T08:13:21.411Z,3.75
2023-04-02T08:33:21.401Z,3.77
2023-04-02T08:53:21.379Z,3.93
2023-04-02T09:13:21.346Z,4.09
2023-04-02T09:33:21.382Z,4.34
2023-04-02T09:53:21.278Z,4.44
2023-04-02T10:13:21.251Z,4.5
2023-04-02T10:33:21.225Z,4.66
2023-04-02T10:53:21.210Z,5.04
2023-04-02T11:13:21.166Z,5.44
2023-04-02T11:33:30.130Z,5.25
2023-04-02T12:33:21.101Z,6.91
2023-04-02T12:53:21.015Z,8.35
2023-04-02T13:13:20.976Z,9.38
2023-04-02T13:33:20.953Z,8.77
2023-04-02T13:53:20.930Z,8.81
2023-04-02T14:13:20.871Z,8.34
2023-04-02T14:33:20.854Z,9.43
2023-04-02T14:53:20.823Z,8.4
2023-04-02T15:13:20.781Z,7.84
2023-04-02T15:33:20.757Z,7.71
2023-04-02T15:53:20.711Z,8.1
2023-04-02T16:13:20.697Z,7.81
2023-04-02T16:33:20.655Z,7.75
2023-04-02T20:13:20.330Z,2.57
2023-04-02T21:13:20.254Z,1.85
2023-04-02T21:53:20.182Z,1.45
2023-04-02T22:33:20.200Z,0.88
2023-04-02T22:53:20.122Z,0.73
2023-04-02T23:13:20.108Z,0.72
2023-04-02T23:33:20.077Z,0.72
2023-04-02T23:53:20.066Z,0.42
